Curiosità e Storia

Airbus A320 danneggiato dalla grandine

Solo danni senza gravi conseguenze per un Airbus A321-200 (marche PT-XPB, volo JJ-3307) della compagnia brasiliana TAM Linhas che è stato danneggiato da una violenta grandinata mentre era in volo.

Era il 9 febbraio, l’A321 era appena decollato da Rio de Janeiro Galeao ed era diretto a Fortaleza quando, raggiunto FL177 alle 17:30 locali, l’equipaggio ha dovuto interrompere la salita a causa della grandine che ha seriamente danneggiato il parabrezza e la prua del velivolo. Dopo 40 minuti dal decollo l’aereo ha fatto ritorno a Rio de Janeiro

Il METAR riportava le seguenti condizioni:

SBGL 082000Z 34005KT 9999 -RA SCT013 BKN020 27/25 Q1012
SBGL 081900Z 15012KT 9000 -TSRA SCT020 FEW025CB BKN040 28/26 Q1 010

Era previsto un temporale, buona visibilità, copertura nuvolosa fino a 2000 piedi con presenza di cumulonembi

Il radar meteo mostra chiaramente la presenza di fenomeni atmosferici intensi nella zona dell’aeroporto (zona di colore blu)

Articoli correlati

Commenta

Questo sito usa Akismet per ridurre lo spam. Scopri come i tuoi dati vengono elaborati.

Back to top button
Close